ENY3879 KMIA-KTLH
Flight info
| Callsign | ENY3879 |
|---|---|
| Flight time | 1h 6m |
| Altitude | 30000 |
| Route | HURCN4 SMELZ JAWJA |
| Aircraft | E75L/M-SDE3GILORVW/S |
Departure
| Time | 2026-04-14 22:20 |
|---|---|
| Airport | Miami International Airport (KMIA) |
Arrival
| Time | 2026-04-14 23:27 |
|---|---|
| Airport | Tallahassee International Airport (KTLH) |
| Time | Latitude | Longitude | Altitude | Speed | Heading |
|---|---|---|---|---|---|
| 2026-04-14 22:00 | 25.79693 | -80.28600 | 11 ft | 0 kts | 51° |
| 2026-04-14 22:09 | 25.79690 | -80.28605 | 12 ft | 2 kts | 51° |
| 2026-04-14 22:09 | 25.79681 | -80.28618 | 12 ft | 2 kts | 51° |
| 2026-04-14 22:09 | 25.79675 | -80.28625 | 12 ft | 1 kts | 40° |
| 2026-04-14 22:10 | 25.79662 | -80.28629 | 12 ft | 2 kts | 341° |
| 2026-04-14 22:10 | 25.79650 | -80.28617 | 12 ft | 2 kts | 285° |
| 2026-04-14 22:10 | 25.79650 | -80.28610 | 12 ft | 1 kts | 257° |
| 2026-04-14 22:10 | 25.79651 | -80.28603 | 12 ft | 0 kts | 265° |
| 2026-04-14 22:12 | 25.79649 | -80.28633 | 12 ft | 10 kts | 266° |
| 2026-04-14 22:13 | 25.79642 | -80.28728 | 11 ft | 13 kts | 265° |
| 2026-04-14 22:13 | 25.79688 | -80.28807 | 11 ft | 13 kts | 349° |
| 2026-04-14 22:13 | 25.79787 | -80.28813 | 11 ft | 13 kts | 356° |
| 2026-04-14 22:13 | 25.79884 | -80.28818 | 11 ft | 13 kts | 358° |
| 2026-04-14 22:14 | 25.79982 | -80.28822 | 11 ft | 13 kts | 346° |
| 2026-04-14 22:14 | 25.80009 | -80.28916 | 12 ft | 14 kts | 268° |
| 2026-04-14 22:14 | 25.80006 | -80.29031 | 11 ft | 15 kts | 268° |
| 2026-04-14 22:14 | 25.80001 | -80.29156 | 12 ft | 16 kts | 268° |
| 2026-04-14 22:15 | 25.79996 | -80.29291 | 11 ft | 17 kts | 268° |
| 2026-04-14 22:15 | 25.79990 | -80.29433 | 11 ft | 19 kts | 267° |
| 2026-04-14 22:15 | 25.79984 | -80.29565 | 11 ft | 15 kts | 267° |
| 2026-04-14 22:15 | 25.79979 | -80.29686 | 12 ft | 14 kts | 267° |
| 2026-04-14 22:16 | 25.79975 | -80.29795 | 12 ft | 14 kts | 268° |
| 2026-04-14 22:16 | 25.79971 | -80.29909 | 11 ft | 13 kts | 268° |
| 2026-04-14 22:16 | 25.79985 | -80.29987 | 11 ft | 0 kts | 283° |
| 2026-04-14 22:18 | 25.79986 | -80.29993 | 12 ft | 3 kts | 283° |
| 2026-04-14 22:19 | 25.80000 | -80.30050 | 11 ft | 11 kts | 286° |
| 2026-04-14 22:19 | 25.80075 | -80.30064 | 11 ft | 12 kts | 88° |
| 2026-04-14 22:19 | 25.80089 | -80.29729 | 12 ft | 73 kts | 87° |
| 2026-04-14 22:20 | 25.80119 | -80.28957 | 12 ft | 124 kts | 88° |
| 2026-04-14 22:20 | 25.80165 | -80.27870 | 88 ft | 154 kts | 88° |
| 2026-04-14 22:20 | 25.80202 | -80.26630 | 451 ft | 164 kts | 88° |
| 2026-04-14 22:20 | 25.80287 | -80.25345 | 1175 ft | 167 kts | 85° |
| 2026-04-14 22:21 | 25.80364 | -80.24065 | 1784 ft | 175 kts | 85° |
| 2026-04-14 22:21 | 25.80429 | -80.22714 | 2192 ft | 193 kts | 85° |
| 2026-04-14 22:21 | 25.80490 | -80.21156 | 2692 ft | 210 kts | 86° |
| 2026-04-14 22:21 | 25.80545 | -80.19514 | 3316 ft | 220 kts | 86° |
| 2026-04-14 22:22 | 25.80693 | -80.17732 | 3667 ft | 242 kts | 70° |
| 2026-04-14 22:22 | 25.81716 | -80.16235 | 4147 ft | 259 kts | 34° |
| 2026-04-14 22:22 | 25.83475 | -80.15673 | 4821 ft | 272 kts | 2° |
| 2026-04-14 22:22 | 25.85390 | -80.15740 | 5608 ft | 274 kts | 2° |
| 2026-04-14 22:23 | 25.87289 | -80.15743 | 6370 ft | 275 kts | 4° |
| 2026-04-14 22:23 | 25.89199 | -80.15745 | 6904 ft | 277 kts | 355° |
| 2026-04-14 22:23 | 25.91085 | -80.16294 | 6995 ft | 284 kts | 345° |
| 2026-04-14 22:23 | 25.93045 | -80.16985 | 7263 ft | 297 kts | 345° |
| 2026-04-14 22:24 | 25.94909 | -80.17638 | 7864 ft | 297 kts | 345° |
| 2026-04-14 22:24 | 25.96869 | -80.18323 | 8584 ft | 294 kts | 344° |
| 2026-04-14 22:24 | 25.98627 | -80.19449 | 9210 ft | 298 kts | 314° |
| 2026-04-14 22:24 | 25.99698 | -80.21416 | 9790 ft | 302 kts | 293° |
| 2026-04-14 22:25 | 26.00487 | -80.23581 | 10380 ft | 305 kts | 293° |
| 2026-04-14 22:25 | 26.01286 | -80.25783 | 10907 ft | 310 kts | 293° |
| 2026-04-14 22:25 | 26.02090 | -80.28004 | 11368 ft | 317 kts | 293° |
| 2026-04-14 22:25 | 26.02935 | -80.30341 | 11824 ft | 325 kts | 293° |
| 2026-04-14 22:26 | 26.03789 | -80.32706 | 12300 ft | 332 kts | 294° |
| 2026-04-14 22:26 | 26.04660 | -80.35119 | 12852 ft | 336 kts | 293° |
| 2026-04-14 22:26 | 26.05533 | -80.37540 | 13473 ft | 337 kts | 294° |
| 2026-04-14 22:26 | 26.06419 | -80.39998 | 14124 ft | 339 kts | 294° |
| 2026-04-14 22:27 | 26.07297 | -80.42435 | 14738 ft | 340 kts | 294° |
| 2026-04-14 22:27 | 26.08176 | -80.44876 | 15327 ft | 342 kts | 294° |
| 2026-04-14 22:27 | 26.09066 | -80.47349 | 15894 ft | 344 kts | 294° |
| 2026-04-14 22:27 | 26.09972 | -80.49869 | 16444 ft | 347 kts | 294° |
| 2026-04-14 22:28 | 26.10851 | -80.52315 | 16992 ft | 349 kts | 294° |
| 2026-04-14 22:28 | 26.11749 | -80.54816 | 17549 ft | 351 kts | 294° |
| 2026-04-14 22:28 | 26.12701 | -80.57331 | 18077 ft | 351 kts | 302° |
| 2026-04-14 22:28 | 26.14331 | -80.59330 | 18523 ft | 347 kts | 328° |
| 2026-04-14 22:29 | 26.16476 | -80.60537 | 19008 ft | 347 kts | 337° |
| 2026-04-14 22:29 | 26.18751 | -80.61655 | 19485 ft | 350 kts | 338° |
| 2026-04-14 22:29 | 26.20901 | -80.62694 | 19917 ft | 352 kts | 338° |
| 2026-04-14 22:29 | 26.23164 | -80.63782 | 20378 ft | 354 kts | 338° |
| 2026-04-14 22:30 | 26.25429 | -80.64867 | 20811 ft | 357 kts | 338° |
| 2026-04-14 22:30 | 26.27738 | -80.65974 | 21230 ft | 360 kts | 337° |
| 2026-04-14 22:30 | 26.30054 | -80.67084 | 21631 ft | 363 kts | 337° |
| 2026-04-14 22:30 | 26.32389 | -80.68205 | 22054 ft | 365 kts | 337° |
| 2026-04-14 22:31 | 26.34726 | -80.69326 | 22467 ft | 366 kts | 337° |
| 2026-04-14 22:31 | 26.37096 | -80.70463 | 22851 ft | 369 kts | 337° |
| 2026-04-14 22:31 | 26.39453 | -80.71626 | 23228 ft | 372 kts | 331° |
| 2026-04-14 22:31 | 26.41490 | -80.73469 | 23554 ft | 376 kts | 314° |
| 2026-04-14 22:32 | 26.43287 | -80.75619 | 23936 ft | 378 kts | 314° |
| 2026-04-14 22:32 | 26.45092 | -80.77793 | 24331 ft | 380 kts | 314° |
| 2026-04-14 22:32 | 26.46875 | -80.79945 | 24693 ft | 381 kts | 314° |
| 2026-04-14 22:32 | 26.48698 | -80.82150 | 25043 ft | 383 kts | 313° |
| 2026-04-14 22:33 | 26.50521 | -80.84357 | 25364 ft | 386 kts | 313° |
| 2026-04-14 22:33 | 26.52338 | -80.86555 | 25692 ft | 388 kts | 313° |
| 2026-04-14 22:33 | 26.54184 | -80.88790 | 26039 ft | 389 kts | 313° |
| 2026-04-14 22:33 | 26.56038 | -80.91036 | 26380 ft | 390 kts | 313° |
| 2026-04-14 22:34 | 26.57873 | -80.93260 | 26702 ft | 392 kts | 313° |
| 2026-04-14 22:34 | 26.59715 | -80.95494 | 26990 ft | 394 kts | 313° |
| 2026-04-14 22:34 | 26.61594 | -80.97774 | 27286 ft | 396 kts | 313° |
| 2026-04-14 22:34 | 26.63459 | -81.00037 | 27611 ft | 397 kts | 313° |
| 2026-04-14 22:35 | 26.65359 | -81.02347 | 27900 ft | 398 kts | 313° |
| 2026-04-14 22:35 | 26.67237 | -81.04628 | 28193 ft | 400 kts | 313° |
| 2026-04-14 22:35 | 26.69133 | -81.06934 | 28471 ft | 401 kts | 313° |
| 2026-04-14 22:35 | 26.71041 | -81.09255 | 28733 ft | 403 kts | 313° |
| 2026-04-14 22:36 | 26.72925 | -81.11547 | 28973 ft | 405 kts | 313° |
| 2026-04-14 22:36 | 26.74847 | -81.13889 | 29220 ft | 407 kts | 313° |
| 2026-04-14 22:36 | 26.76778 | -81.16241 | 29451 ft | 409 kts | 313° |
| 2026-04-14 22:36 | 26.78702 | -81.18586 | 29706 ft | 410 kts | 313° |
| 2026-04-14 22:37 | 26.80655 | -81.20969 | 29947 ft | 412 kts | 313° |
| 2026-04-14 22:37 | 26.82587 | -81.23326 | 30124 ft | 410 kts | 313° |
| 2026-04-14 22:37 | 26.84546 | -81.25719 | 30149 ft | 417 kts | 313° |
| 2026-04-14 22:38 | 26.88541 | -81.30602 | 30153 ft | 431 kts | 313° |
| 2026-04-14 22:38 | 26.92648 | -81.35626 | 30156 ft | 443 kts | 313° |
| 2026-04-14 22:39 | 26.96839 | -81.40760 | 30149 ft | 443 kts | 313° |
| 2026-04-14 22:39 | 27.01013 | -81.45879 | 30150 ft | 443 kts | 314° |
| 2026-04-14 22:40 | 27.05306 | -81.50865 | 30150 ft | 441 kts | 322° |
| 2026-04-14 22:40 | 27.10403 | -81.54702 | 30154 ft | 442 kts | 328° |
| 2026-04-14 22:41 | 27.15601 | -81.58446 | 30158 ft | 441 kts | 328° |
| 2026-04-14 22:41 | 27.20790 | -81.62192 | 30159 ft | 441 kts | 328° |
| 2026-04-14 22:42 | 27.25995 | -81.65955 | 30162 ft | 442 kts | 328° |
| 2026-04-14 22:42 | 27.31180 | -81.69707 | 30163 ft | 442 kts | 328° |
| 2026-04-14 22:43 | 27.36375 | -81.73470 | 30162 ft | 442 kts | 328° |
| 2026-04-14 22:43 | 27.41560 | -81.77231 | 30161 ft | 443 kts | 328° |
| 2026-04-14 22:44 | 27.46845 | -81.80861 | 30159 ft | 441 kts | 335° |
| 2026-04-14 22:44 | 27.52469 | -81.83601 | 30163 ft | 441 kts | 337° |
| 2026-04-14 22:45 | 27.58185 | -81.86385 | 30161 ft | 442 kts | 337° |
| 2026-04-14 22:45 | 27.63870 | -81.89157 | 30159 ft | 442 kts | 337° |
| 2026-04-14 22:46 | 27.69514 | -81.91912 | 30160 ft | 441 kts | 337° |
| 2026-04-14 22:46 | 27.75158 | -81.94671 | 30165 ft | 441 kts | 337° |
| 2026-04-14 22:47 | 27.80826 | -81.97445 | 30164 ft | 442 kts | 337° |
| 2026-04-14 22:47 | 27.86470 | -82.00211 | 30167 ft | 442 kts | 337° |
| 2026-04-14 22:48 | 27.92086 | -82.02965 | 30167 ft | 442 kts | 337° |
| 2026-04-14 22:48 | 27.97773 | -82.05757 | 30167 ft | 443 kts | 337° |
| 2026-04-14 22:49 | 28.03409 | -82.08527 | 30167 ft | 442 kts | 337° |
| 2026-04-14 22:49 | 28.08966 | -82.11492 | 30167 ft | 442 kts | 329° |
| 2026-04-14 22:50 | 28.14011 | -82.15476 | 30171 ft | 444 kts | 326° |
| 2026-04-14 22:50 | 28.19081 | -82.19523 | 30174 ft | 443 kts | 326° |
| 2026-04-14 22:51 | 28.24122 | -82.23549 | 30172 ft | 443 kts | 326° |
| 2026-04-14 22:51 | 28.29149 | -82.27568 | 30172 ft | 443 kts | 326° |
| 2026-04-14 22:52 | 28.34165 | -82.31584 | 30170 ft | 442 kts | 326° |
| 2026-04-14 22:52 | 28.39219 | -82.35633 | 30168 ft | 443 kts | 326° |
| 2026-04-14 22:53 | 28.44238 | -82.39661 | 30171 ft | 442 kts | 326° |
| 2026-04-14 22:53 | 28.49262 | -82.43697 | 30170 ft | 443 kts | 326° |
| 2026-04-14 22:54 | 28.54296 | -82.47746 | 30168 ft | 443 kts | 326° |
| 2026-04-14 22:54 | 28.59306 | -82.51780 | 30166 ft | 442 kts | 326° |
| 2026-04-14 22:55 | 28.64342 | -82.55840 | 30168 ft | 443 kts | 326° |
| 2026-04-14 22:55 | 28.69178 | -82.59744 | 30165 ft | 443 kts | 326° |
| 2026-04-14 22:56 | 28.74200 | -82.63802 | 30169 ft | 442 kts | 326° |
| 2026-04-14 22:56 | 28.79224 | -82.67866 | 30173 ft | 442 kts | 326° |
| 2026-04-14 22:57 | 28.84233 | -82.71924 | 30177 ft | 442 kts | 326° |
| 2026-04-14 22:57 | 28.89249 | -82.75992 | 30174 ft | 443 kts | 326° |
| 2026-04-14 22:58 | 28.94253 | -82.80055 | 30172 ft | 443 kts | 325° |
| 2026-04-14 22:58 | 28.99293 | -82.84152 | 30171 ft | 443 kts | 325° |
| 2026-04-14 22:59 | 29.04300 | -82.88229 | 30170 ft | 443 kts | 325° |
| 2026-04-14 22:59 | 29.09303 | -82.92306 | 30167 ft | 443 kts | 326° |
| 2026-04-14 23:00 | 29.14341 | -82.96416 | 30176 ft | 443 kts | 326° |
| 2026-04-14 23:00 | 29.19346 | -83.00506 | 30174 ft | 442 kts | 325° |
| 2026-04-14 23:01 | 29.24383 | -83.04626 | 30173 ft | 443 kts | 325° |
| 2026-04-14 23:01 | 29.29403 | -83.08737 | 30171 ft | 444 kts | 325° |
| 2026-04-14 23:01 | 29.31875 | -83.10764 | 30162 ft | 431 kts | 325° |
| 2026-04-14 23:02 | 29.34309 | -83.12760 | 30168 ft | 427 kts | 325° |
| 2026-04-14 23:02 | 29.39124 | -83.16713 | 30123 ft | 429 kts | 325° |
| 2026-04-14 23:02 | 29.41556 | -83.18711 | 29667 ft | 429 kts | 325° |
| 2026-04-14 23:03 | 29.43984 | -83.20708 | 29205 ft | 425 kts | 325° |
| 2026-04-14 23:03 | 29.46365 | -83.22667 | 28747 ft | 421 kts | 325° |
| 2026-04-14 23:03 | 29.48714 | -83.24599 | 28289 ft | 418 kts | 325° |
| 2026-04-14 23:03 | 29.51082 | -83.26550 | 27823 ft | 414 kts | 325° |
| 2026-04-14 23:04 | 29.53399 | -83.28460 | 27371 ft | 412 kts | 324° |
| 2026-04-14 23:04 | 29.55725 | -83.30378 | 26916 ft | 409 kts | 324° |
| 2026-04-14 23:04 | 29.58007 | -83.32261 | 26470 ft | 408 kts | 324° |
| 2026-04-14 23:04 | 29.60316 | -83.34167 | 26015 ft | 405 kts | 324° |
| 2026-04-14 23:05 | 29.62554 | -83.36015 | 25580 ft | 402 kts | 324° |
| 2026-04-14 23:05 | 29.64882 | -83.37940 | 25120 ft | 400 kts | 324° |
| 2026-04-14 23:05 | 29.67228 | -83.39880 | 24656 ft | 398 kts | 324° |
| 2026-04-14 23:05 | 29.69397 | -83.41675 | 24228 ft | 396 kts | 324° |
| 2026-04-14 23:06 | 29.71637 | -83.43529 | 23789 ft | 393 kts | 324° |
| 2026-04-14 23:06 | 29.73796 | -83.45317 | 23365 ft | 392 kts | 323° |
| 2026-04-14 23:06 | 29.76052 | -83.47187 | 22930 ft | 390 kts | 323° |
| 2026-04-14 23:06 | 29.78273 | -83.49029 | 22491 ft | 387 kts | 323° |
| 2026-04-14 23:07 | 29.80484 | -83.50864 | 22060 ft | 385 kts | 323° |
| 2026-04-14 23:07 | 29.82399 | -83.52454 | 21684 ft | 382 kts | 323° |
| 2026-04-14 23:07 | 29.84595 | -83.54277 | 21255 ft | 381 kts | 323° |
| 2026-04-14 23:07 | 29.86354 | -83.55740 | 20907 ft | 379 kts | 323° |
| 2026-04-14 23:08 | 29.88487 | -83.57513 | 20494 ft | 376 kts | 323° |
| 2026-04-14 23:08 | 29.90620 | -83.59287 | 20075 ft | 373 kts | 323° |
| 2026-04-14 23:08 | 29.92712 | -83.61029 | 19659 ft | 371 kts | 323° |
| 2026-04-14 23:08 | 29.94805 | -83.62771 | 19255 ft | 369 kts | 323° |
| 2026-04-14 23:09 | 29.96912 | -83.64527 | 18844 ft | 367 kts | 323° |
| 2026-04-14 23:09 | 29.98966 | -83.66239 | 18443 ft | 364 kts | 323° |
| 2026-04-14 23:09 | 30.01028 | -83.67959 | 18044 ft | 362 kts | 323° |
| 2026-04-14 23:09 | 30.02933 | -83.69548 | 17624 ft | 361 kts | 323° |
| 2026-04-14 23:10 | 30.04963 | -83.71244 | 17085 ft | 357 kts | 323° |
| 2026-04-14 23:10 | 30.06981 | -83.72929 | 16673 ft | 354 kts | 323° |
| 2026-04-14 23:10 | 30.08986 | -83.74605 | 16269 ft | 352 kts | 323° |
| 2026-04-14 23:10 | 30.11011 | -83.76299 | 15888 ft | 352 kts | 323° |
| 2026-04-14 23:11 | 30.12756 | -83.77759 | 15540 ft | 351 kts | 323° |
| 2026-04-14 23:11 | 30.14749 | -83.79427 | 15147 ft | 349 kts | 323° |
| 2026-04-14 23:11 | 30.16723 | -83.81080 | 14769 ft | 348 kts | 323° |
| 2026-04-14 23:11 | 30.18015 | -83.82227 | 14496 ft | 346 kts | 320° |
| 2026-04-14 23:12 | 30.19875 | -83.84012 | 14111 ft | 344 kts | 320° |
| 2026-04-14 23:12 | 30.21723 | -83.85783 | 13722 ft | 343 kts | 320° |
| 2026-04-14 23:12 | 30.23551 | -83.87535 | 13347 ft | 342 kts | 320° |
| 2026-04-14 23:12 | 30.25408 | -83.89314 | 12962 ft | 340 kts | 320° |
| 2026-04-14 23:13 | 30.27240 | -83.91071 | 12577 ft | 338 kts | 320° |
| 2026-04-14 23:13 | 30.29059 | -83.92815 | 12215 ft | 337 kts | 320° |
| 2026-04-14 23:13 | 30.30856 | -83.94540 | 11835 ft | 337 kts | 320° |
| 2026-04-14 23:13 | 30.32647 | -83.96259 | 11457 ft | 331 kts | 320° |
| 2026-04-14 23:14 | 30.34406 | -83.97948 | 11103 ft | 324 kts | 321° |
| 2026-04-14 23:14 | 30.36125 | -83.99599 | 10723 ft | 316 kts | 320° |
| 2026-04-14 23:14 | 30.37805 | -84.01215 | 10384 ft | 307 kts | 321° |
| 2026-04-14 23:14 | 30.39429 | -84.02777 | 10046 ft | 299 kts | 321° |
| 2026-04-14 23:15 | 30.41024 | -84.04312 | 9724 ft | 293 kts | 321° |
| 2026-04-14 23:15 | 30.42582 | -84.05811 | 9418 ft | 291 kts | 321° |
| 2026-04-14 23:15 | 30.43867 | -84.07049 | 9150 ft | 291 kts | 321° |
| 2026-04-14 23:15 | 30.45216 | -84.08348 | 8873 ft | 291 kts | 320° |
| 2026-04-14 23:16 | 30.46790 | -84.09866 | 8541 ft | 292 kts | 321° |
| 2026-04-14 23:16 | 30.48340 | -84.11359 | 8196 ft | 279 kts | 320° |
| 2026-04-14 23:16 | 30.49777 | -84.12745 | 7925 ft | 255 kts | 320° |
| 2026-04-14 23:16 | 30.51098 | -84.14020 | 7627 ft | 238 kts | 320° |
| 2026-04-14 23:17 | 30.52333 | -84.15213 | 7361 ft | 222 kts | 320° |
| 2026-04-14 23:17 | 30.53493 | -84.16334 | 7131 ft | 209 kts | 320° |
| 2026-04-14 23:17 | 30.54585 | -84.17388 | 6952 ft | 203 kts | 320° |
| 2026-04-14 23:18 | 30.56736 | -84.19466 | 6500 ft | 196 kts | 320° |
| 2026-04-14 23:18 | 30.57787 | -84.20483 | 6276 ft | 192 kts | 320° |
| 2026-04-14 23:18 | 30.58804 | -84.21466 | 6070 ft | 189 kts | 320° |
| 2026-04-14 23:18 | 30.59810 | -84.22440 | 5887 ft | 183 kts | 320° |
| 2026-04-14 23:19 | 30.60751 | -84.23357 | 5787 ft | 170 kts | 316° |
| 2026-04-14 23:19 | 30.61273 | -84.24560 | 5506 ft | 165 kts | 273° |
| 2026-04-14 23:19 | 30.61299 | -84.25445 | 5385 ft | 162 kts | 268° |
| 2026-04-14 23:19 | 30.61304 | -84.26737 | 5186 ft | 163 kts | 268° |
| 2026-04-14 23:20 | 30.61305 | -84.28072 | 4982 ft | 160 kts | 268° |
| 2026-04-14 23:20 | 30.61302 | -84.29354 | 4794 ft | 158 kts | 268° |
| 2026-04-14 23:20 | 30.61297 | -84.30451 | 4649 ft | 157 kts | 268° |
| 2026-04-14 23:20 | 30.61291 | -84.31621 | 4495 ft | 157 kts | 268° |
| 2026-04-14 23:21 | 30.61283 | -84.32885 | 4315 ft | 157 kts | 268° |
| 2026-04-14 23:21 | 30.61274 | -84.34161 | 4139 ft | 156 kts | 268° |
| 2026-04-14 23:21 | 30.60980 | -84.35338 | 3951 ft | 153 kts | 228° |
| 2026-04-14 23:21 | 30.60071 | -84.35939 | 3759 ft | 149 kts | 184° |
| 2026-04-14 23:22 | 30.59066 | -84.36053 | 3546 ft | 143 kts | 180° |
| 2026-04-14 23:22 | 30.58063 | -84.36066 | 3336 ft | 142 kts | 177° |
| 2026-04-14 23:22 | 30.57071 | -84.36059 | 3141 ft | 142 kts | 177° |
| 2026-04-14 23:22 | 30.56061 | -84.36049 | 2943 ft | 142 kts | 176° |
| 2026-04-14 23:23 | 30.55073 | -84.36038 | 2741 ft | 142 kts | 176° |
| 2026-04-14 23:23 | 30.54086 | -84.36028 | 2543 ft | 142 kts | 177° |
| 2026-04-14 23:23 | 30.53085 | -84.36018 | 2346 ft | 141 kts | 177° |
| 2026-04-14 23:23 | 30.52103 | -84.36008 | 2155 ft | 141 kts | 177° |
| 2026-04-14 23:24 | 30.51121 | -84.35998 | 1962 ft | 141 kts | 177° |
| 2026-04-14 23:24 | 30.50138 | -84.35989 | 1770 ft | 140 kts | 177° |
| 2026-04-14 23:24 | 30.49157 | -84.35979 | 1587 ft | 139 kts | 178° |
| 2026-04-14 23:24 | 30.48184 | -84.35969 | 1405 ft | 138 kts | 178° |
| 2026-04-14 23:25 | 30.47221 | -84.35959 | 1222 ft | 137 kts | 178° |
| 2026-04-14 23:25 | 30.46260 | -84.35949 | 1044 ft | 137 kts | 178° |
| 2026-04-14 23:25 | 30.45304 | -84.35939 | 866 ft | 136 kts | 178° |
| 2026-04-14 23:25 | 30.44363 | -84.35930 | 694 ft | 135 kts | 178° |
| 2026-04-14 23:26 | 30.43422 | -84.35925 | 513 ft | 134 kts | 179° |
| 2026-04-14 23:26 | 30.42488 | -84.35928 | 329 ft | 133 kts | 178° |
| 2026-04-14 23:26 | 30.41577 | -84.35914 | 172 ft | 127 kts | 178° |
| 2026-04-14 23:26 | 30.40717 | -84.35899 | 76 ft | 109 kts | 178° |
| 2026-04-14 23:27 | 30.40120 | -84.35888 | 64 ft | 60 kts | 179° |
| 2026-04-14 23:27 | 30.39822 | -84.35884 | 59 ft | 34 kts | 180° |
| 2026-04-14 23:27 | 30.39595 | -84.35883 | 57 ft | 30 kts | 180° |
| 2026-04-14 23:27 | 30.39423 | -84.35868 | 56 ft | 20 kts | 144° |
| 2026-04-14 23:28 | 30.39406 | -84.35731 | 56 ft | 17 kts | 90° |
| 2026-04-14 23:28 | 30.39406 | -84.35586 | 57 ft | 17 kts | 88° |
| 2026-04-14 23:28 | 30.39408 | -84.35441 | 58 ft | 17 kts | 90° |
| 2026-04-14 23:28 | 30.39408 | -84.35302 | 61 ft | 16 kts | 88° |
| 2026-04-14 23:29 | 30.39410 | -84.35171 | 63 ft | 16 kts | 90° |
| 2026-04-14 23:29 | 30.39411 | -84.35035 | 66 ft | 17 kts | 90° |
| 2026-04-14 23:29 | 30.39411 | -84.34893 | 69 ft | 18 kts | 90° |
| 2026-04-14 23:29 | 30.39408 | -84.34759 | 70 ft | 13 kts | 111° |
| 2026-04-14 23:30 | 30.39377 | -84.34655 | 70 ft | 10 kts | 90° |
| 2026-04-14 23:30 | 30.39403 | -84.34588 | 69 ft | 3 kts | 37° |
| 2026-04-14 23:30 | 30.39422 | -84.34570 | 68 ft | 0 kts | 38° |